sensor_id;sensor_type;location;lat;lon;timestamp;temperature;humidity
3268;DHT22;1646;52.450;13.326;2023-07-08T00:03:22;21.00;81.00
3268;DHT22;1646;52.450;13.326;2023-07-08T00:08:21;20.90;81.30
3268;DHT22;1646;52.450;13.326;2023-07-08T00:13:20;20.80;81.10
3268;DHT22;1646;52.450;13.326;2023-07-08T00:18:18;20.80;81.60
3268;DHT22;1646;52.450;13.326;2023-07-08T00:23:18;20.70;82.20
3268;DHT22;1646;52.450;13.326;2023-07-08T00:28:20;20.60;83.20
3268;DHT22;1646;52.450;13.326;2023-07-08T00:33:18;20.60;84.30
3268;DHT22;1646;52.450;13.326;2023-07-08T00:38:20;20.50;84.40
3268;DHT22;1646;52.450;13.326;2023-07-08T00:43:37;20.40;84.60
3268;DHT22;1646;52.450;13.326;2023-07-08T00:48:36;20.30;84.60
3268;DHT22;1646;52.450;13.326;2023-07-08T00:53:37;20.30;85.10
3268;DHT22;1646;52.450;13.326;2023-07-08T00:58:39;20.20;86.40
3268;DHT22;1646;52.450;13.326;2023-07-08T01:03:44;20.20;86.20
3268;DHT22;1646;52.450;13.326;2023-07-08T01:08:49;20.20;86.70
3268;DHT22;1646;52.450;13.326;2023-07-08T01:13:51;20.20;87.00
3268;DHT22;1646;52.450;13.326;2023-07-08T01:18:50;20.20;87.70
3268;DHT22;1646;52.450;13.326;2023-07-08T01:23:52;20.10;87.90
3268;DHT22;1646;52.450;13.326;2023-07-08T01:28:50;20.10;88.80
3268;DHT22;1646;52.450;13.326;2023-07-08T01:33:49;20.00;88.80
3268;DHT22;1646;52.450;13.326;2023-07-08T01:38:49;20.00;89.60
3268;DHT22;1646;52.450;13.326;2023-07-08T01:43:48;19.90;89.80
3268;DHT22;1646;52.450;13.326;2023-07-08T01:48:50;19.90;90.00
3268;DHT22;1646;52.450;13.326;2023-07-08T01:53:50;19.80;90.10
3268;DHT22;1646;52.450;13.326;2023-07-08T01:58:49;19.80;90.10
3268;DHT22;1646;52.450;13.326;2023-07-08T02:03:48;19.70;90.80
3268;DHT22;1646;52.450;13.326;2023-07-08T02:08:49;19.70;90.80
3268;DHT22;1646;52.450;13.326;2023-07-08T02:13:49;19.70;91.20
3268;DHT22;1646;52.450;13.326;2023-07-08T02:18:48;19.60;91.00
3268;DHT22;1646;52.450;13.326;2023-07-08T02:23:49;19.60;91.30
3268;DHT22;1646;52.450;13.326;2023-07-08T02:28:51;19.50;92.10
3268;DHT22;1646;52.450;13.326;2023-07-08T02:33:49;19.50;92.30
3268;DHT22;1646;52.450;13.326;2023-07-08T02:38:48;19.40;92.70
3268;DHT22;1646;52.450;13.326;2023-07-08T02:43:48;19.30;93.00
3268;DHT22;1646;52.450;13.326;2023-07-08T02:48:47;19.20;93.40
3268;DHT22;1646;52.450;13.326;2023-07-08T02:53:47;19.20;93.40
3268;DHT22;1646;52.450;13.326;2023-07-08T02:58:46;19.10;93.70
3268;DHT22;1646;52.450;13.326;2023-07-08T03:03:45;19.10;94.30
3268;DHT22;1646;52.450;13.326;2023-07-08T03:08:45;19.00;94.30
3268;DHT22;1646;52.450;13.326;2023-07-08T03:13:43;19.00;94.80
3268;DHT22;1646;52.450;13.326;2023-07-08T03:18:42;19.00;95.20
3268;DHT22;1646;52.450;13.326;2023-07-08T03:23:46;19.00;95.40
3268;DHT22;1646;52.450;13.326;2023-07-08T03:28:45;18.90;95.50
3268;DHT22;1646;52.450;13.326;2023-07-08T03:33:44;19.00;95.70
3268;DHT22;1646;52.450;13.326;2023-07-08T03:38:44;19.00;96.40
3268;DHT22;1646;52.450;13.326;2023-07-08T03:43:43;19.00;96.90
3268;DHT22;1646;52.450;13.326;2023-07-08T03:48:42;19.10;97.70
3268;DHT22;1646;52.450;13.326;2023-07-08T03:53:41;19.00;97.80
3268;DHT22;1646;52.450;13.326;2023-07-08T03:58:41;19.10;98.20
3268;DHT22;1646;52.450;13.326;2023-07-08T04:03:41;19.10;98.80
3268;DHT22;1646;52.450;13.326;2023-07-08T04:08:41;19.10;99.60
3268;DHT22;1646;52.450;13.326;2023-07-08T04:13:41;19.30;99.90
3268;DHT22;1646;52.450;13.326;2023-07-08T04:18:40;19.30;99.90
3268;DHT22;1646;52.450;13.326;2023-07-08T04:23:38;19.40;99.90
3268;DHT22;1646;52.450;13.326;2023-07-08T04:28:37;19.50;99.90
3268;DHT22;1646;52.450;13.326;2023-07-08T04:33:37;19.50;99.90
3268;DHT22;1646;52.450;13.326;2023-07-08T04:38:35;19.70;99.90
3268;DHT22;1646;52.450;13.326;2023-07-08T04:43:33;19.80;99.90
3268;DHT22;1646;52.450;13.326;2023-07-08T04:48:31;20.00;99.90
3268;DHT22;1646;52.450;13.326;2023-07-08T04:53:31;20.10;99.90
3268;DHT22;1646;52.450;13.326;2023-07-08T04:58:29;20.30;99.90
3268;DHT22;1646;52.450;13.326;2023-07-08T05:03:28;20.50;99.90
3268;DHT22;1646;52.450;13.326;2023-07-08T05:08:26;20.70;99.90
3268;DHT22;1646;52.450;13.326;2023-07-08T05:13:26;21.00;99.90
3268;DHT22;1646;52.450;13.326;2023-07-08T05:18:24;21.20;99.90
3268;DHT22;1646;52.450;13.326;2023-07-08T05:23:22;21.50;99.90
3268;DHT22;1646;52.450;13.326;2023-07-08T05:28:21;21.70;99.90
3268;DHT22;1646;52.450;13.326;2023-07-08T05:33:23;21.90;99.90
3268;DHT22;1646;52.450;13.326;2023-07-08T05:38:24;22.00;99.90
3268;DHT22;1646;52.450;13.326;2023-07-08T05:43:22;22.20;99.90
3268;DHT22;1646;52.450;13.326;2023-07-08T05:48:22;22.50;99.90
3268;DHT22;1646;52.450;13.326;2023-07-08T05:53:21;22.70;99.50
3268;DHT22;1646;52.450;13.326;2023-07-08T05:58:19;22.90;99.40
3268;DHT22;1646;52.450;13.326;2023-07-08T06:03:24;23.10;99.00
3268;DHT22;1646;52.450;13.326;2023-07-08T06:08:23;23.30;99.00
3268;DHT22;1646;52.450;13.326;2023-07-08T06:13:21;23.50;98.60
3268;DHT22;1646;52.450;13.326;2023-07-08T06:18:20;23.80;98.50
3268;DHT22;1646;52.450;13.326;2023-07-08T06:23:19;24.00;98.10
3268;DHT22;1646;52.450;13.326;2023-07-08T06:28:18;24.00;97.00
3268;DHT22;1646;52.450;13.326;2023-07-08T06:33:17;24.10;97.40
3268;DHT22;1646;52.450;13.326;2023-07-08T06:38:15;24.40;96.60
3268;DHT22;1646;52.450;13.326;2023-07-08T06:43:15;24.60;96.30
3268;DHT22;1646;52.450;13.326;2023-07-08T06:48:25;24.80;96.00
3268;DHT22;1646;52.450;13.326;2023-07-08T06:53:23;25.00;95.90
3268;DHT22;1646;52.450;13.326;2023-07-08T06:58:23;25.20;95.80
3268;DHT22;1646;52.450;13.326;2023-07-08T07:03:21;25.50;95.20
3268;DHT22;1646;52.450;13.326;2023-07-08T07:08:20;25.70;95.00
3268;DHT22;1646;52.450;13.326;2023-07-08T07:13:18;25.90;94.40
3268;DHT22;1646;52.450;13.326;2023-07-08T07:18:18;26.10;94.00
3268;DHT22;1646;52.450;13.326;2023-07-08T07:23:16;26.20;93.00
3268;DHT22;1646;52.450;13.326;2023-07-08T07:28:14;26.30;92.80
3268;DHT22;1646;52.450;13.326;2023-07-08T07:33:14;26.60;92.50
3268;DHT22;1646;52.450;13.326;2023-07-08T07:38:14;26.90;92.50
3268;DHT22;1646;52.450;13.326;2023-07-08T07:43:13;27.10;92.60
3268;DHT22;1646;52.450;13.326;2023-07-08T07:48:11;27.20;90.80
3268;DHT22;1646;52.450;13.326;2023-07-08T07:53:09;27.40;90.40
3268;DHT22;1646;52.450;13.326;2023-07-08T07:58:10;27.60;90.40
3268;DHT22;1646;52.450;13.326;2023-07-08T08:03:08;27.80;89.80
3268;DHT22;1646;52.450;13.326;2023-07-08T08:08:07;28.00;87.90
3268;DHT22;1646;52.450;13.326;2023-07-08T08:13:06;28.20;90.70
3268;DHT22;1646;52.450;13.326;2023-07-08T08:18:06;28.40;90.50
3268;DHT22;1646;52.450;13.326;2023-07-08T08:23:04;28.70;90.20
3268;DHT22;1646;52.450;13.326;2023-07-08T08:28:03;28.80;85.60
3268;DHT22;1646;52.450;13.326;2023-07-08T08:33:02;28.90;88.10
3268;DHT22;1646;52.450;13.326;2023-07-08T08:38:02;29.00;86.20
3268;DHT22;1646;52.450;13.326;2023-07-08T08:43:03;29.20;88.30
3268;DHT22;1646;52.450;13.326;2023-07-08T08:48:04;29.40;83.80
3268;DHT22;1646;52.450;13.326;2023-07-08T08:53:10;29.50;82.50
3268;DHT22;1646;52.450;13.326;2023-07-08T08:58:27;29.70;84.60
3268;DHT22;1646;52.450;13.326;2023-07-08T09:03:36;29.90;83.90
3268;DHT22;1646;52.450;13.326;2023-07-08T09:08:37;30.20;76.70
3268;DHT22;1646;52.450;13.326;2023-07-08T09:13:37;30.20;73.90
3268;DHT22;1646;52.450;13.326;2023-07-08T09:18:41;30.40;72.90
3268;DHT22;1646;52.450;13.326;2023-07-08T09:23:44;30.70;70.40
3268;DHT22;1646;52.450;13.326;2023-07-08T09:28:45;30.80;65.70
3268;DHT22;1646;52.450;13.326;2023-07-08T09:33:43;31.00;62.30
3268;DHT22;1646;52.450;13.326;2023-07-08T09:38:46;31.30;61.20
3268;DHT22;1646;52.450;13.326;2023-07-08T09:43:45;31.70;65.20
3268;DHT22;1646;52.450;13.326;2023-07-08T09:48:44;32.20;62.40
3268;DHT22;1646;52.450;13.326;2023-07-08T09:53:44;32.70;59.90
3268;DHT22;1646;52.450;13.326;2023-07-08T09:58:43;33.40;58.30
3268;DHT22;1646;52.450;13.326;2023-07-08T10:03:49;33.80;56.90
3268;DHT22;1646;52.450;13.326;2023-07-08T10:08:48;33.80;52.20
3268;DHT22;1646;52.450;13.326;2023-07-08T10:13:49;33.70;51.20
3268;DHT22;1646;52.450;13.326;2023-07-08T10:19:09;33.60;52.90
3268;DHT22;1646;52.450;13.326;2023-07-08T10:24:21;34.10;51.20
3268;DHT22;1646;52.450;13.326;2023-07-08T10:29:30;34.30;52.70
3268;DHT22;1646;52.450;13.326;2023-07-08T10:34:39;34.50;50.80
3268;DHT22;1646;52.450;13.326;2023-07-08T10:39:59;34.80;53.80
3268;DHT22;1646;52.450;13.326;2023-07-08T10:45:15;34.90;49.40
3268;DHT22;1646;52.450;13.326;2023-07-08T10:50:28;34.70;50.50
3268;DHT22;1646;52.450;13.326;2023-07-08T10:55:37;34.60;49.30
3268;DHT22;1646;52.450;13.326;2023-07-08T11:00:43;34.70;47.90
3268;DHT22;1646;52.450;13.326;2023-07-08T11:05:45;34.00;46.80
3268;DHT22;1646;52.450;13.326;2023-07-08T11:10:51;33.80;49.00
3268;DHT22;1646;52.450;13.326;2023-07-08T11:16:13;34.20;47.70
3268;DHT22;1646;52.450;13.326;2023-07-08T11:21:16;34.80;48.60
3268;DHT22;1646;52.450;13.326;2023-07-08T11:26:23;35.20;48.60
3268;DHT22;1646;52.450;13.326;2023-07-08T11:31:26;35.60;48.70
3268;DHT22;1646;52.450;13.326;2023-07-08T11:36:26;35.60;48.00
3268;DHT22;1646;52.450;13.326;2023-07-08T11:41:27;35.80;47.40
3268;DHT22;1646;52.450;13.326;2023-07-08T11:46:31;35.90;44.80
3268;DHT22;1646;52.450;13.326;2023-07-08T11:51:31;35.60;46.00
3268;DHT22;1646;52.450;13.326;2023-07-08T11:56:48;35.40;45.80
3268;DHT22;1646;52.450;13.326;2023-07-08T12:01:52;35.50;46.40
3268;DHT22;1646;52.450;13.326;2023-07-08T12:07:06;35.60;45.90
3268;DHT22;1646;52.450;13.326;2023-07-08T12:12:23;35.70;45.80
3268;DHT22;1646;52.450;13.326;2023-07-08T12:17:22;35.90;46.60
3268;DHT22;1646;52.450;13.326;2023-07-08T12:22:20;35.90;44.60
3268;DHT22;1646;52.450;13.326;2023-07-08T12:27:21;36.00;44.70
3268;DHT22;1646;52.450;13.326;2023-07-08T12:32:21;36.10;44.90
3268;DHT22;1646;52.450;13.326;2023-07-08T12:37:22;35.90;43.60
3268;DHT22;1646;52.450;13.326;2023-07-08T12:42:22;35.60;42.40
3268;DHT22;1646;52.450;13.326;2023-07-08T12:47:20;35.60;43.70
3268;DHT22;1646;52.450;13.326;2023-07-08T12:52:20;35.20;42.50
3268;DHT22;1646;52.450;13.326;2023-07-08T12:57:19;34.70;44.20
3268;DHT22;1646;52.450;13.326;2023-07-08T13:02:20;35.10;44.50
3268;DHT22;1646;52.450;13.326;2023-07-08T13:07:33;35.20;44.30
3268;DHT22;1646;52.450;13.326;2023-07-08T13:12:33;35.30;44.30
3268;DHT22;1646;52.450;13.326;2023-07-08T13:17:36;35.00;42.80
3268;DHT22;1646;52.450;13.326;2023-07-08T13:22:35;35.30;43.90
3268;DHT22;1646;52.450;13.326;2023-07-08T13:27:33;35.70;45.30
3268;DHT22;1646;52.450;13.326;2023-07-08T13:32:33;36.00;43.30
3268;DHT22;1646;52.450;13.326;2023-07-08T13:37:36;35.80;44.10
3268;DHT22;1646;52.450;13.326;2023-07-08T13:42:35;36.20;43.10
3268;DHT22;1646;52.450;13.326;2023-07-08T13:47:33;36.30;42.80
3268;DHT22;1646;52.450;13.326;2023-07-08T13:52:31;36.50;42.10
3268;DHT22;1646;52.450;13.326;2023-07-08T13:57:33;35.90;42.60
3268;DHT22;1646;52.450;13.326;2023-07-08T14:02:32;35.80;44.30
3268;DHT22;1646;52.450;13.326;2023-07-08T14:07:33;36.10;41.30
3268;DHT22;1646;52.450;13.326;2023-07-08T14:12:33;36.10;40.50
3268;DHT22;1646;52.450;13.326;2023-07-08T14:17:31;35.70;42.00
3268;DHT22;1646;52.450;13.326;2023-07-08T14:22:30;35.60;42.40
3268;DHT22;1646;52.450;13.326;2023-07-08T14:27:29;35.90;43.60
3268;DHT22;1646;52.450;13.326;2023-07-08T14:32:30;36.00;40.60
3268;DHT22;1646;52.450;13.326;2023-07-08T14:37:29;35.80;41.80
3268;DHT22;1646;52.450;13.326;2023-07-08T14:42:27;35.90;42.20
3268;DHT22;1646;52.450;13.326;2023-07-08T14:47:26;35.80;40.30
3268;DHT22;1646;52.450;13.326;2023-07-08T14:52:25;35.40;41.10
3268;DHT22;1646;52.450;13.326;2023-07-08T14:57:27;35.30;43.00
3268;DHT22;1646;52.450;13.326;2023-07-08T15:02:28;35.60;42.90
3268;DHT22;1646;52.450;13.326;2023-07-08T15:07:28;36.00;41.00
3268;DHT22;1646;52.450;13.326;2023-07-08T15:12:26;36.00;40.70
3268;DHT22;1646;52.450;13.326;2023-07-08T15:17:24;35.80;38.60
3268;DHT22;1646;52.450;13.326;2023-07-08T15:22:23;35.40;39.60
3268;DHT22;1646;52.450;13.326;2023-07-08T15:27:22;35.30;41.90
3268;DHT22;1646;52.450;13.326;2023-07-08T15:32:21;35.40;41.30
3268;DHT22;1646;52.450;13.326;2023-07-08T15:37:37;35.40;40.40
3268;DHT22;1646;52.450;13.326;2023-07-08T15:42:37;35.30;41.40
3268;DHT22;1646;52.450;13.326;2023-07-08T15:47:35;35.20;40.30
3268;DHT22;1646;52.450;13.326;2023-07-08T15:52:33;35.20;40.70
3268;DHT22;1646;52.450;13.326;2023-07-08T15:57:33;35.20;40.00
3268;DHT22;1646;52.450;13.326;2023-07-08T16:02:32;35.10;41.10
3268;DHT22;1646;52.450;13.326;2023-07-08T16:07:34;35.20;42.50
3268;DHT22;1646;52.450;13.326;2023-07-08T16:12:32;35.30;43.60
3268;DHT22;1646;52.450;13.326;2023-07-08T16:17:33;35.30;42.20
3268;DHT22;1646;52.450;13.326;2023-07-08T16:22:33;35.20;41.20
3268;DHT22;1646;52.450;13.326;2023-07-08T16:27:31;35.10;41.20
3268;DHT22;1646;52.450;13.326;2023-07-08T16:32:31;34.90;40.90
3268;DHT22;1646;52.450;13.326;2023-07-08T16:37:30;34.80;41.60
3268;DHT22;1646;52.450;13.326;2023-07-08T16:42:29;34.70;41.40
3268;DHT22;1646;52.450;13.326;2023-07-08T16:47:27;34.50;41.90
3268;DHT22;1646;52.450;13.326;2023-07-08T16:52:27;34.30;39.50
3268;DHT22;1646;52.450;13.326;2023-07-08T16:57:25;34.10;42.00
3268;DHT22;1646;52.450;13.326;2023-07-08T17:02:23;34.20;39.80
3268;DHT22;1646;52.450;13.326;2023-07-08T17:07:22;34.10;40.50
3268;DHT22;1646;52.450;13.326;2023-07-08T17:12:21;33.90;40.80
3268;DHT22;1646;52.450;13.326;2023-07-08T17:17:20;33.80;41.40
3268;DHT22;1646;52.450;13.326;2023-07-08T17:22:18;33.90;41.60
3268;DHT22;1646;52.450;13.326;2023-07-08T17:27:16;33.70;41.20
3268;DHT22;1646;52.450;13.326;2023-07-08T17:32:16;33.60;41.00
3268;DHT22;1646;52.450;13.326;2023-07-08T17:37:14;33.30;41.20
3268;DHT22;1646;52.450;13.326;2023-07-08T17:42:12;33.00;41.20
3268;DHT22;1646;52.450;13.326;2023-07-08T17:47:18;32.90;41.70
3268;DHT22;1646;52.450;13.326;2023-07-08T17:52:18;32.80;41.80
3268;DHT22;1646;52.450;13.326;2023-07-08T17:57:17;32.60;41.80
3268;DHT22;1646;52.450;13.326;2023-07-08T18:02:16;32.40;42.50
3268;DHT22;1646;52.450;13.326;2023-07-08T18:07:15;32.20;42.90
3268;DHT22;1646;52.450;13.326;2023-07-08T18:12:14;32.00;43.40
3268;DHT22;1646;52.450;13.326;2023-07-08T18:17:12;31.80;42.90
3268;DHT22;1646;52.450;13.326;2023-07-08T18:22:11;31.60;43.30
3268;DHT22;1646;52.450;13.326;2023-07-08T18:27:11;31.50;44.60
3268;DHT22;1646;52.450;13.326;2023-07-08T18:32:12;31.20;44.70
3268;DHT22;1646;52.450;13.326;2023-07-08T18:37:10;31.00;44.70
3268;DHT22;1646;52.450;13.326;2023-07-08T18:42:09;30.80;44.40
3268;DHT22;1646;52.450;13.326;2023-07-08T18:47:09;30.60;45.50
3268;DHT22;1646;52.450;13.326;2023-07-08T18:52:10;30.30;45.20
3268;DHT22;1646;52.450;13.326;2023-07-08T18:57:10;30.20;45.30
3268;DHT22;1646;52.450;13.326;2023-07-08T19:02:28;30.00;45.50
3268;DHT22;1646;52.450;13.326;2023-07-08T19:07:29;29.80;46.10
3268;DHT22;1646;52.450;13.326;2023-07-08T19:12:27;29.60;46.50
3268;DHT22;1646;52.450;13.326;2023-07-08T19:17:25;29.50;48.10
3268;DHT22;1646;52.450;13.326;2023-07-08T19:22:24;29.30;48.60
3268;DHT22;1646;52.450;13.326;2023-07-08T19:27:23;29.10;48.10
3268;DHT22;1646;52.450;13.326;2023-07-08T19:32:22;28.80;49.20
3268;DHT22;1646;52.450;13.326;2023-07-08T19:37:20;28.60;50.30
3268;DHT22;1646;52.450;13.326;2023-07-08T19:42:24;28.40;51.80
3268;DHT22;1646;52.450;13.326;2023-07-08T19:47:23;28.30;51.90
3268;DHT22;1646;52.450;13.326;2023-07-08T19:52:21;28.20;53.60
3268;DHT22;1646;52.450;13.326;2023-07-08T19:57:19;27.90;53.10
3268;DHT22;1646;52.450;13.326;2023-07-08T20:02:19;27.80;53.40
3268;DHT22;1646;52.450;13.326;2023-07-08T20:07:17;27.70;54.00
3268;DHT22;1646;52.450;13.326;2023-07-08T20:12:16;27.50;54.50
3268;DHT22;1646;52.450;13.326;2023-07-08T20:17:14;27.30;53.90
3268;DHT22;1646;52.450;13.326;2023-07-08T20:22:15;27.20;54.80
3268;DHT22;1646;52.450;13.326;2023-07-08T20:27:14;27.10;54.20
3268;DHT22;1646;52.450;13.326;2023-07-08T20:32:13;27.00;54.40
3268;DHT22;1646;52.450;13.326;2023-07-08T20:37:13;26.90;54.40
3268;DHT22;1646;52.450;13.326;2023-07-08T20:42:13;26.80;54.60
3268;DHT22;1646;52.450;13.326;2023-07-08T20:47:14;26.70;54.30
3268;DHT22;1646;52.450;13.326;2023-07-08T20:52:13;26.60;54.40
3268;DHT22;1646;52.450;13.326;2023-07-08T20:57:18;26.40;54.30
3268;DHT22;1646;52.450;13.326;2023-07-08T21:02:22;26.40;54.10
3268;DHT22;1646;52.450;13.326;2023-07-08T21:07:21;26.30;54.40
3268;DHT22;1646;52.450;13.326;2023-07-08T21:12:21;26.20;54.30
3268;DHT22;1646;52.450;13.326;2023-07-08T21:17:20;26.10;54.20
3268;DHT22;1646;52.450;13.326;2023-07-08T21:22:18;26.00;54.20
3268;DHT22;1646;52.450;13.326;2023-07-08T21:27:22;25.80;54.30
3268;DHT22;1646;52.450;13.326;2023-07-08T21:32:21;25.70;54.30
3268;DHT22;1646;52.450;13.326;2023-07-08T21:37:19;25.60;54.40
3268;DHT22;1646;52.450;13.326;2023-07-08T21:42:18;25.50;55.40
3268;DHT22;1646;52.450;13.326;2023-07-08T21:47:17;25.40;54.90
3268;DHT22;1646;52.450;13.326;2023-07-08T21:52:16;25.30;55.30
3268;DHT22;1646;52.450;13.326;2023-07-08T21:57:14;25.20;55.40
3268;DHT22;1646;52.450;13.326;2023-07-08T22:02:13;25.10;55.40
3268;DHT22;1646;52.450;13.326;2023-07-08T22:07:14;25.10;55.60
3268;DHT22;1646;52.450;13.326;2023-07-08T22:12:13;25.00;55.40
3268;DHT22;1646;52.450;13.326;2023-07-08T22:17:14;24.90;55.90
3268;DHT22;1646;52.450;13.326;2023-07-08T22:22:19;24.80;56.30
3268;DHT22;1646;52.450;13.326;2023-07-08T22:27:19;24.80;56.40
3268;DHT22;1646;52.450;13.326;2023-07-08T22:32:18;24.70;56.40
3268;DHT22;1646;52.450;13.326;2023-07-08T22:37:17;24.60;56.70
3268;DHT22;1646;52.450;13.326;2023-07-08T22:42:16;24.60;56.50
3268;DHT22;1646;52.450;13.326;2023-07-08T22:47:15;24.50;56.50
3268;DHT22;1646;52.450;13.326;2023-07-08T22:52:21;24.40;57.20
3268;DHT22;1646;52.450;13.326;2023-07-08T22:57:22;24.40;57.20
3268;DHT22;1646;52.450;13.326;2023-07-08T23:02:20;24.30;57.50
3268;DHT22;1646;52.450;13.326;2023-07-08T23:07:20;24.30;57.50
3268;DHT22;1646;52.450;13.326;2023-07-08T23:12:18;24.20;57.70
3268;DHT22;1646;52.450;13.326;2023-07-08T23:17:16;24.20;57.60
3268;DHT22;1646;52.450;13.326;2023-07-08T23:22:17;24.10;58.80
3268;DHT22;1646;52.450;13.326;2023-07-08T23:27:19;24.00;58.20
3268;DHT22;1646;52.450;13.326;2023-07-08T23:32:18;24.00;58.70
3268;DHT22;1646;52.450;13.326;2023-07-08T23:37:23;23.90;58.60
3268;DHT22;1646;52.450;13.326;2023-07-08T23:42:27;23.80;58.90
3268;DHT22;1646;52.450;13.326;2023-07-08T23:47:26;23.70;58.80
3268;DHT22;1646;52.450;13.326;2023-07-08T23:52:24;23.50;59.10
3268;DHT22;1646;52.450;13.326;2023-07-08T23:57:23;23.40;59.30
